sensor_id;sensor_type;location;lat;lon;timestamp;P1;durP1;ratioP1;P2;durP2;ratioP2
66087;SDS011;52872;52.994;6.940;2022-11-15T00:01:14;24.15;;;18.08;;
66087;SDS011;52872;52.994;6.940;2022-11-15T00:04:05;23.58;;;16.50;;
66087;SDS011;52872;52.994;6.940;2022-11-15T00:06:50;23.50;;;17.48;;
66087;SDS011;52872;52.994;6.940;2022-11-15T00:09:36;23.40;;;17.58;;
66087;SDS011;52872;52.994;6.940;2022-11-15T00:12:26;21.00;;;15.52;;
66087;SDS011;52872;52.994;6.940;2022-11-15T00:15:13;21.00;;;15.95;;
66087;SDS011;52872;52.994;6.940;2022-11-15T00:17:59;21.95;;;15.82;;
66087;SDS011;52872;52.994;6.940;2022-11-15T00:20:44;19.98;;;16.05;;
66087;SDS011;52872;52.994;6.940;2022-11-15T00:23:29;20.17;;;14.57;;
66087;SDS011;52872;52.994;6.940;2022-11-15T00:26:15;19.45;;;14.25;;
66087;SDS011;52872;52.994;6.940;2022-11-15T00:29:01;19.33;;;14.45;;
66087;SDS011;52872;52.994;6.940;2022-11-15T00:31:46;20.65;;;14.50;;
66087;SDS011;52872;52.994;6.940;2022-11-15T00:34:31;19.67;;;14.77;;
66087;SDS011;52872;52.994;6.940;2022-11-15T00:37:17;18.30;;;14.00;;
66087;SDS011;52872;52.994;6.940;2022-11-15T00:40:02;18.75;;;13.35;;
66087;SDS011;52872;52.994;6.940;2022-11-15T00:42:48;18.90;;;14.27;;
66087;SDS011;52872;52.994;6.940;2022-11-15T00:45:33;20.45;;;14.48;;
66087;SDS011;52872;52.994;6.940;2022-11-15T00:48:19;18.58;;;14.30;;
66087;SDS011;52872;52.994;6.940;2022-11-15T00:51:05;21.10;;;15.23;;
66087;SDS011;52872;52.994;6.940;2022-11-15T00:53:50;21.50;;;15.25;;
66087;SDS011;52872;52.994;6.940;2022-11-15T00:56:36;20.27;;;15.85;;
66087;SDS011;52872;52.994;6.940;2022-11-15T00:59:21;20.67;;;16.25;;
66087;SDS011;52872;52.994;6.940;2022-11-15T01:02:06;24.73;;;17.48;;
66087;SDS011;52872;52.994;6.940;2022-11-15T01:04:52;21.17;;;16.60;;
66087;SDS011;52872;52.994;6.940;2022-11-15T01:07:37;22.17;;;16.55;;
66087;SDS011;52872;52.994;6.940;2022-11-15T01:10:23;21.00;;;16.15;;
66087;SDS011;52872;52.994;6.940;2022-11-15T01:13:10;23.92;;;17.40;;
66087;SDS011;52872;52.994;6.940;2022-11-15T01:15:55;23.65;;;17.88;;
66087;SDS011;52872;52.994;6.940;2022-11-15T01:18:41;20.77;;;14.48;;
66087;SDS011;52872;52.994;6.940;2022-11-15T01:21:27;22.98;;;16.95;;
66087;SDS011;52872;52.994;6.940;2022-11-15T01:24:13;23.40;;;16.77;;
66087;SDS011;52872;52.994;6.940;2022-11-15T01:26:58;23.83;;;16.48;;
66087;SDS011;52872;52.994;6.940;2022-11-15T01:29:43;25.27;;;16.50;;
66087;SDS011;52872;52.994;6.940;2022-11-15T01:32:29;24.60;;;16.13;;
66087;SDS011;52872;52.994;6.940;2022-11-15T01:35:14;25.35;;;16.00;;
66087;SDS011;52872;52.994;6.940;2022-11-15T01:38:00;23.52;;;17.42;;
66087;SDS011;52872;52.994;6.940;2022-11-15T01:40:46;22.58;;;15.13;;
66087;SDS011;52872;52.994;6.940;2022-11-15T01:43:33;22.00;;;16.27;;
66087;SDS011;52872;52.994;6.940;2022-11-15T01:49:11;24.05;;;16.08;;
66087;SDS011;52872;52.994;6.940;2022-11-15T01:52:02;24.67;;;16.42;;
66087;SDS011;52872;52.994;6.940;2022-11-15T01:54:50;25.27;;;16.27;;
66087;SDS011;52872;52.994;6.940;2022-11-15T01:57:42;21.83;;;15.25;;
66087;SDS011;52872;52.994;6.940;2022-11-15T02:00:30;22.70;;;15.20;;
66087;SDS011;52872;52.994;6.940;2022-11-15T02:03:16;21.88;;;16.08;;
66087;SDS011;52872;52.994;6.940;2022-11-15T02:06:02;21.52;;;15.73;;
66087;SDS011;52872;52.994;6.940;2022-11-15T02:08:49;22.63;;;16.55;;
66087;SDS011;52872;52.994;6.940;2022-11-15T02:11:35;24.13;;;16.25;;
66087;SDS011;52872;52.994;6.940;2022-11-15T02:14:20;21.25;;;16.33;;
66087;SDS011;52872;52.994;6.940;2022-11-15T02:20:08;23.85;;;17.25;;
66087;SDS011;52872;52.994;6.940;2022-11-15T02:29:07;22.30;;;16.05;;
66087;SDS011;52872;52.994;6.940;2022-11-15T02:31:59;20.80;;;14.70;;
66087;SDS011;52872;52.994;6.940;2022-11-15T02:41:02;22.42;;;16.15;;
66087;SDS011;52872;52.994;6.940;2022-11-15T02:43:56;21.70;;;14.65;;
66087;SDS011;52872;52.994;6.940;2022-11-15T02:46:49;25.77;;;16.48;;
66087;SDS011;52872;52.994;6.940;2022-11-15T02:49:59;26.00;;;15.57;;
66087;SDS011;52872;52.994;6.940;2022-11-15T02:52:48;27.42;;;15.88;;
66087;SDS011;52872;52.994;6.940;2022-11-15T02:55:37;24.50;;;15.82;;
66087;SDS011;52872;52.994;6.940;2022-11-15T02:58:30;25.58;;;15.35;;
66087;SDS011;52872;52.994;6.940;2022-11-15T03:07:32;26.70;;;16.65;;
66087;SDS011;52872;52.994;6.940;2022-11-15T03:19:34;33.40;;;17.27;;
66087;SDS011;52872;52.994;6.940;2022-11-15T03:22:33;27.92;;;15.70;;
66087;SDS011;52872;52.994;6.940;2022-11-15T03:25:22;28.65;;;17.23;;
66087;SDS011;52872;52.994;6.940;2022-11-15T03:28:12;33.28;;;17.48;;
66087;SDS011;52872;52.994;6.940;2022-11-15T03:31:02;29.45;;;16.25;;
66087;SDS011;52872;52.994;6.940;2022-11-15T03:34:10;30.08;;;16.70;;
66087;SDS011;52872;52.994;6.940;2022-11-15T03:39:50;24.60;;;16.27;;
66087;SDS011;52872;52.994;6.940;2022-11-15T03:42:43;26.63;;;15.88;;
66087;SDS011;52872;52.994;6.940;2022-11-15T03:45:39;27.20;;;16.80;;
66087;SDS011;52872;52.994;6.940;2022-11-15T03:48:34;31.45;;;17.40;;
66087;SDS011;52872;52.994;6.940;2022-11-15T03:51:22;29.27;;;18.35;;
66087;SDS011;52872;52.994;6.940;2022-11-15T03:54:07;29.70;;;17.08;;
66087;SDS011;52872;52.994;6.940;2022-11-15T03:56:53;28.73;;;17.83;;
66087;SDS011;52872;52.994;6.940;2022-11-15T03:59:38;28.05;;;18.23;;
66087;SDS011;52872;52.994;6.940;2022-11-15T04:02:24;32.80;;;19.00;;
66087;SDS011;52872;52.994;6.940;2022-11-15T04:05:09;31.23;;;18.77;;
66087;SDS011;52872;52.994;6.940;2022-11-15T04:07:55;34.92;;;19.48;;
66087;SDS011;52872;52.994;6.940;2022-11-15T04:10:40;34.63;;;19.48;;
66087;SDS011;52872;52.994;6.940;2022-11-15T04:13:26;39.38;;;20.10;;
66087;SDS011;52872;52.994;6.940;2022-11-15T04:16:11;35.38;;;18.15;;
66087;SDS011;52872;52.994;6.940;2022-11-15T04:18:57;43.60;;;20.35;;
66087;SDS011;52872;52.994;6.940;2022-11-15T04:22:01;37.23;;;20.30;;
66087;SDS011;52872;52.994;6.940;2022-11-15T04:25:05;33.60;;;18.77;;
66087;SDS011;52872;52.994;6.940;2022-11-15T04:27:50;45.05;;;21.10;;
66087;SDS011;52872;52.994;6.940;2022-11-15T04:30:36;42.97;;;22.73;;
66087;SDS011;52872;52.994;6.940;2022-11-15T04:33:21;38.13;;;21.35;;
66087;SDS011;52872;52.994;6.940;2022-11-15T04:36:07;46.53;;;25.15;;
66087;SDS011;52872;52.994;6.940;2022-11-15T04:39:11;42.70;;;23.83;;
66087;SDS011;52872;52.994;6.940;2022-11-15T04:41:57;47.88;;;23.70;;
66087;SDS011;52872;52.994;6.940;2022-11-15T04:44:43;49.25;;;26.15;;
66087;SDS011;52872;52.994;6.940;2022-11-15T04:47:28;46.88;;;24.67;;
66087;SDS011;52872;52.994;6.940;2022-11-15T04:50:14;48.58;;;23.77;;
66087;SDS011;52872;52.994;6.940;2022-11-15T04:53:00;56.47;;;28.02;;
66087;SDS011;52872;52.994;6.940;2022-11-15T04:55:46;59.65;;;29.25;;
66087;SDS011;52872;52.994;6.940;2022-11-15T04:58:31;57.67;;;28.00;;
66087;SDS011;52872;52.994;6.940;2022-11-15T05:01:17;56.63;;;27.70;;
66087;SDS011;52872;52.994;6.940;2022-11-15T05:04:03;55.08;;;25.38;;
66087;SDS011;52872;52.994;6.940;2022-11-15T05:07:06;58.83;;;26.90;;
66087;SDS011;52872;52.994;6.940;2022-11-15T05:09:52;51.80;;;24.55;;
66087;SDS011;52872;52.994;6.940;2022-11-15T05:12:37;54.30;;;28.23;;
66087;SDS011;52872;52.994;6.940;2022-11-15T05:15:22;52.42;;;28.30;;
66087;SDS011;52872;52.994;6.940;2022-11-15T05:18:08;41.92;;;24.10;;
66087;SDS011;52872;52.994;6.940;2022-11-15T05:20:54;55.88;;;25.60;;
66087;SDS011;52872;52.994;6.940;2022-11-15T05:23:39;49.33;;;26.30;;
66087;SDS011;52872;52.994;6.940;2022-11-15T05:26:25;51.45;;;26.88;;
66087;SDS011;52872;52.994;6.940;2022-11-15T05:29:11;47.28;;;25.02;;
66087;SDS011;52872;52.994;6.940;2022-11-15T05:31:56;47.13;;;26.50;;
66087;SDS011;52872;52.994;6.940;2022-11-15T05:34:42;42.70;;;24.52;;
66087;SDS011;52872;52.994;6.940;2022-11-15T05:37:28;54.50;;;26.73;;
66087;SDS011;52872;52.994;6.940;2022-11-15T05:40:14;47.47;;;25.48;;
66087;SDS011;52872;52.994;6.940;2022-11-15T05:43:00;45.85;;;24.13;;
66087;SDS011;52872;52.994;6.940;2022-11-15T05:45:48;45.05;;;24.55;;
66087;SDS011;52872;52.994;6.940;2022-11-15T05:48:34;43.80;;;25.30;;
66087;SDS011;52872;52.994;6.940;2022-11-15T05:51:20;43.45;;;23.95;;
66087;SDS011;52872;52.994;6.940;2022-11-15T05:54:07;39.28;;;23.98;;
66087;SDS011;52872;52.994;6.940;2022-11-15T05:56:52;42.65;;;23.75;;
66087;SDS011;52872;52.994;6.940;2022-11-15T05:59:39;42.45;;;23.20;;
66087;SDS011;52872;52.994;6.940;2022-11-15T06:02:28;39.35;;;22.48;;
66087;SDS011;52872;52.994;6.940;2022-11-15T06:05:13;37.97;;;23.75;;
66087;SDS011;52872;52.994;6.940;2022-11-15T06:07:59;33.10;;;22.20;;
66087;SDS011;52872;52.994;6.940;2022-11-15T06:10:44;36.50;;;21.98;;
66087;SDS011;52872;52.994;6.940;2022-11-15T06:13:30;36.75;;;21.52;;
66087;SDS011;52872;52.994;6.940;2022-11-15T06:16:16;32.22;;;20.48;;
66087;SDS011;52872;52.994;6.940;2022-11-15T06:19:01;36.25;;;21.67;;
66087;SDS011;52872;52.994;6.940;2022-11-15T06:21:47;33.38;;;21.35;;
66087;SDS011;52872;52.994;6.940;2022-11-15T06:24:32;37.88;;;22.50;;
66087;SDS011;52872;52.994;6.940;2022-11-15T06:27:18;34.53;;;22.10;;
66087;SDS011;52872;52.994;6.940;2022-11-15T06:30:03;36.50;;;22.42;;
66087;SDS011;52872;52.994;6.940;2022-11-15T06:32:49;34.88;;;21.83;;
66087;SDS011;52872;52.994;6.940;2022-11-15T06:35:35;38.33;;;23.33;;
66087;SDS011;52872;52.994;6.940;2022-11-15T06:38:21;33.15;;;20.88;;
66087;SDS011;52872;52.994;6.940;2022-11-15T06:41:07;31.95;;;20.05;;
66087;SDS011;52872;52.994;6.940;2022-11-15T06:43:54;31.90;;;19.75;;
66087;SDS011;52872;52.994;6.940;2022-11-15T06:46:41;28.42;;;19.92;;
66087;SDS011;52872;52.994;6.940;2022-11-15T06:49:26;30.40;;;20.15;;
66087;SDS011;52872;52.994;6.940;2022-11-15T06:52:11;30.80;;;20.08;;
66087;SDS011;52872;52.994;6.940;2022-11-15T06:54:57;27.23;;;19.60;;
66087;SDS011;52872;52.994;6.940;2022-11-15T06:57:49;31.55;;;20.55;;
66087;SDS011;52872;52.994;6.940;2022-11-15T07:00:36;29.80;;;19.83;;
66087;SDS011;52872;52.994;6.940;2022-11-15T07:03:21;30.70;;;20.08;;
66087;SDS011;52872;52.994;6.940;2022-11-15T07:06:07;32.67;;;19.50;;
66087;SDS011;52872;52.994;6.940;2022-11-15T07:08:54;28.35;;;20.30;;
66087;SDS011;52872;52.994;6.940;2022-11-15T07:11:39;28.80;;;19.52;;
66087;SDS011;52872;52.994;6.940;2022-11-15T07:14:25;32.90;;;20.13;;
66087;SDS011;52872;52.994;6.940;2022-11-15T07:17:10;25.38;;;18.70;;
66087;SDS011;52872;52.994;6.940;2022-11-15T07:19:56;28.45;;;20.17;;
66087;SDS011;52872;52.994;6.940;2022-11-15T07:22:42;31.92;;;19.52;;
66087;SDS011;52872;52.994;6.940;2022-11-15T07:25:27;29.55;;;20.23;;
66087;SDS011;52872;52.994;6.940;2022-11-15T07:28:13;28.55;;;19.73;;
66087;SDS011;52872;52.994;6.940;2022-11-15T07:31:01;26.45;;;18.33;;
66087;SDS011;52872;52.994;6.940;2022-11-15T07:33:51;27.00;;;19.35;;
66087;SDS011;52872;52.994;6.940;2022-11-15T07:36:37;28.08;;;18.95;;
66087;SDS011;52872;52.994;6.940;2022-11-15T07:39:22;27.42;;;19.65;;
66087;SDS011;52872;52.994;6.940;2022-11-15T07:42:08;27.40;;;19.67;;
66087;SDS011;52872;52.994;6.940;2022-11-15T07:45:12;30.05;;;19.35;;
66087;SDS011;52872;52.994;6.940;2022-11-15T07:47:58;28.80;;;19.55;;
66087;SDS011;52872;52.994;6.940;2022-11-15T07:50:44;24.17;;;17.55;;
66087;SDS011;52872;52.994;6.940;2022-11-15T07:53:29;26.33;;;18.05;;
66087;SDS011;52872;52.994;6.940;2022-11-15T07:56:15;26.65;;;18.40;;
66087;SDS011;52872;52.994;6.940;2022-11-15T07:59:00;22.25;;;17.45;;
66087;SDS011;52872;52.994;6.940;2022-11-15T08:01:46;24.00;;;17.30;;
66087;SDS011;52872;52.994;6.940;2022-11-15T08:04:31;22.17;;;16.75;;
66087;SDS011;52872;52.994;6.940;2022-11-15T08:07:17;25.02;;;18.13;;
66087;SDS011;52872;52.994;6.940;2022-11-15T08:10:03;26.05;;;18.98;;
66087;SDS011;52872;52.994;6.940;2022-11-15T08:13:06;24.17;;;17.52;;
66087;SDS011;52872;52.994;6.940;2022-11-15T08:16:01;21.77;;;17.45;;
66087;SDS011;52872;52.994;6.940;2022-11-15T08:18:47;19.35;;;15.68;;
66087;SDS011;52872;52.994;6.940;2022-11-15T08:21:33;23.70;;;17.95;;
66087;SDS011;52872;52.994;6.940;2022-11-15T08:24:18;22.42;;;17.05;;
66087;SDS011;52872;52.994;6.940;2022-11-15T08:27:04;23.70;;;17.02;;
66087;SDS011;52872;52.994;6.940;2022-11-15T08:29:49;29.00;;;16.63;;
66087;SDS011;52872;52.994;6.940;2022-11-15T08:32:38;25.63;;;16.98;;
66087;SDS011;52872;52.994;6.940;2022-11-15T08:35:23;20.58;;;16.58;;
66087;SDS011;52872;52.994;6.940;2022-11-15T08:38:13;21.80;;;17.70;;
66087;SDS011;52872;52.994;6.940;2022-11-15T08:41:00;20.27;;;16.63;;
66087;SDS011;52872;52.994;6.940;2022-11-15T08:43:47;23.42;;;17.10;;
66087;SDS011;52872;52.994;6.940;2022-11-15T08:46:32;22.02;;;17.65;;
66087;SDS011;52872;52.994;6.940;2022-11-15T08:49:18;19.73;;;16.00;;
66087;SDS011;52872;52.994;6.940;2022-11-15T08:52:04;22.77;;;17.25;;
66087;SDS011;52872;52.994;6.940;2022-11-15T08:54:49;26.38;;;18.45;;
66087;SDS011;52872;52.994;6.940;2022-11-15T08:57:35;22.23;;;17.75;;
66087;SDS011;52872;52.994;6.940;2022-11-15T09:00:20;21.65;;;17.15;;
66087;SDS011;52872;52.994;6.940;2022-11-15T09:03:06;20.40;;;17.27;;
66087;SDS011;52872;52.994;6.940;2022-11-15T09:05:54;23.08;;;17.60;;
66087;SDS011;52872;52.994;6.940;2022-11-15T09:08:41;25.67;;;18.15;;
66087;SDS011;52872;52.994;6.940;2022-11-15T09:11:31;23.73;;;18.17;;
66087;SDS011;52872;52.994;6.940;2022-11-15T09:14:17;21.52;;;18.10;;
66087;SDS011;52872;52.994;6.940;2022-11-15T09:17:03;25.13;;;17.58;;
66087;SDS011;52872;52.994;6.940;2022-11-15T09:19:48;21.20;;;17.50;;
66087;SDS011;52872;52.994;6.940;2022-11-15T09:22:34;24.05;;;18.23;;
66087;SDS011;52872;52.994;6.940;2022-11-15T09:25:21;24.20;;;17.27;;
66087;SDS011;52872;52.994;6.940;2022-11-15T09:28:07;26.08;;;18.60;;
66087;SDS011;52872;52.994;6.940;2022-11-15T09:31:00;23.60;;;17.65;;
66087;SDS011;52872;52.994;6.940;2022-11-15T09:33:47;25.35;;;18.85;;
66087;SDS011;52872;52.994;6.940;2022-11-15T09:36:32;23.05;;;18.10;;
66087;SDS011;52872;52.994;6.940;2022-11-15T09:39:18;24.40;;;19.08;;
66087;SDS011;52872;52.994;6.940;2022-11-15T09:42:47;23.60;;;17.58;;
66087;SDS011;52872;52.994;6.940;2022-11-15T09:49:13;22.13;;;17.40;;
66087;SDS011;52872;52.994;6.940;2022-11-15T09:52:10;23.20;;;18.85;;
66087;SDS011;52872;52.994;6.940;2022-11-15T09:54:38;21.45;;;17.17;;
66087;SDS011;52872;52.994;6.940;2022-11-15T10:00:02;22.58;;;18.10;;
66087;SDS011;52872;52.994;6.940;2022-11-15T10:03:08;25.45;;;19.05;;
66087;SDS011;52872;52.994;6.940;2022-11-15T10:05:41;21.48;;;17.77;;
66087;SDS011;52872;52.994;6.940;2022-11-15T10:08:20;20.73;;;17.77;;
66087;SDS011;52872;52.994;6.940;2022-11-15T10:10:59;21.98;;;18.10;;
66087;SDS011;52872;52.994;6.940;2022-11-15T10:13:48;21.63;;;18.50;;
66087;SDS011;52872;52.994;6.940;2022-11-15T10:24:19;19.17;;;16.63;;
66087;SDS011;52872;52.994;6.940;2022-11-15T10:26:50;21.25;;;18.60;;
66087;SDS011;52872;52.994;6.940;2022-11-15T10:29:18;20.63;;;18.38;;
66087;SDS011;52872;52.994;6.940;2022-11-15T10:31:52;20.58;;;17.73;;
66087;SDS011;52872;52.994;6.940;2022-11-15T10:34:20;21.23;;;18.70;;
66087;SDS011;52872;52.994;6.940;2022-11-15T10:36:56;20.80;;;17.80;;
66087;SDS011;52872;52.994;6.940;2022-11-15T10:39:24;18.92;;;16.52;;
66087;SDS011;52872;52.994;6.940;2022-11-15T10:41:51;19.40;;;15.63;;
66087;SDS011;52872;52.994;6.940;2022-11-15T10:44:20;17.25;;;15.30;;
66087;SDS011;52872;52.994;6.940;2022-11-15T10:49:21;15.77;;;13.70;;
66087;SDS011;52872;52.994;6.940;2022-11-15T10:57:33;15.55;;;12.88;;
66087;SDS011;52872;52.994;6.940;2022-11-15T11:00:06;14.88;;;12.40;;
66087;SDS011;52872;52.994;6.940;2022-11-15T11:05:29;15.98;;;14.27;;
66087;SDS011;52872;52.994;6.940;2022-11-15T11:08:03;14.32;;;12.90;;
66087;SDS011;52872;52.994;6.940;2022-11-15T11:10:35;15.70;;;14.10;;
66087;SDS011;52872;52.994;6.940;2022-11-15T11:13:33;16.35;;;14.65;;
66087;SDS011;52872;52.994;6.940;2022-11-15T11:21:43;16.52;;;14.93;;
66087;SDS011;52872;52.994;6.940;2022-11-15T11:24:32;17.83;;;14.98;;
66087;SDS011;52872;52.994;6.940;2022-11-15T11:27:17;14.82;;;12.98;;
66087;SDS011;52872;52.994;6.940;2022-11-15T11:35:19;12.95;;;11.75;;
66087;SDS011;52872;52.994;6.940;2022-11-15T11:37:52;13.20;;;11.88;;
66087;SDS011;52872;52.994;6.940;2022-11-15T11:40:29;12.27;;;11.10;;
66087;SDS011;52872;52.994;6.940;2022-11-15T11:48:31;11.65;;;10.40;;
66087;SDS011;52872;52.994;6.940;2022-11-15T11:53:52;7.90;;;7.05;;
66087;SDS011;52872;52.994;6.940;2022-11-15T11:56:27;9.00;;;7.82;;
66087;SDS011;52872;52.994;6.940;2022-11-15T11:59:00;7.53;;;6.55;;
66087;SDS011;52872;52.994;6.940;2022-11-15T12:01:34;7.63;;;6.20;;
66087;SDS011;52872;52.994;6.940;2022-11-15T12:07:03;4.68;;;4.28;;
66087;SDS011;52872;52.994;6.940;2022-11-15T12:10:32;4.03;;;3.63;;
66087;SDS011;52872;52.994;6.940;2022-11-15T12:12:47;4.30;;;3.22;;
66087;SDS011;52872;52.994;6.940;2022-11-15T12:18:24;6.00;;;3.95;;
66087;SDS011;52872;52.994;6.940;2022-11-15T12:20:56;4.80;;;3.80;;
66087;SDS011;52872;52.994;6.940;2022-11-15T12:23:28;5.20;;;4.53;;
66087;SDS011;52872;52.994;6.940;2022-11-15T12:26:02;5.22;;;4.32;;
66087;SDS011;52872;52.994;6.940;2022-11-15T12:34:01;5.78;;;4.57;;
66087;SDS011;52872;52.994;6.940;2022-11-15T12:36:50;6.57;;;4.70;;
66087;SDS011;52872;52.994;6.940;2022-11-15T12:39:17;4.95;;;4.55;;
66087;SDS011;52872;52.994;6.940;2022-11-15T12:49:42;8.32;;;4.75;;
66087;SDS011;52872;52.994;6.940;2022-11-15T12:52:10;6.32;;;4.45;;
66087;SDS011;52872;52.994;6.940;2022-11-15T13:17:43;3.35;;;2.67;;
66087;SDS011;52872;52.994;6.940;2022-11-15T13:22:42;4.57;;;2.58;;
66087;SDS011;52872;52.994;6.940;2022-11-15T13:25:19;6.05;;;2.58;;
66087;SDS011;52872;52.994;6.940;2022-11-15T13:27:54;3.42;;;2.55;;
66087;SDS011;52872;52.994;6.940;2022-11-15T13:30:26;3.95;;;2.80;;
66087;SDS011;52872;52.994;6.940;2022-11-15T13:32:57;3.15;;;2.70;;
66087;SDS011;52872;52.994;6.940;2022-11-15T13:35:28;4.00;;;2.70;;
66087;SDS011;52872;52.994;6.940;2022-11-15T13:37:57;2.85;;;2.33;;
66087;SDS011;52872;52.994;6.940;2022-11-15T13:40:35;3.05;;;2.53;;
66087;SDS011;52872;52.994;6.940;2022-11-15T13:48:32;4.30;;;3.15;;
66087;SDS011;52872;52.994;6.940;2022-11-15T13:51:04;3.72;;;3.33;;
66087;SDS011;52872;52.994;6.940;2022-11-15T13:53:46;5.18;;;3.00;;
66087;SDS011;52872;52.994;6.940;2022-11-15T13:56:17;3.58;;;2.97;;
66087;SDS011;52872;52.994;6.940;2022-11-15T13:58:46;4.13;;;2.80;;
66087;SDS011;52872;52.994;6.940;2022-11-15T14:01:14;3.92;;;3.15;;
66087;SDS011;52872;52.994;6.940;2022-11-15T14:03:54;3.42;;;2.92;;
66087;SDS011;52872;52.994;6.940;2022-11-15T14:06:24;5.43;;;3.00;;
66087;SDS011;52872;52.994;6.940;2022-11-15T14:11:35;5.65;;;3.00;;
66087;SDS011;52872;52.994;6.940;2022-11-15T14:14:05;5.03;;;3.00;;
66087;SDS011;52872;52.994;6.940;2022-11-15T14:16:40;3.10;;;2.80;;
66087;SDS011;52872;52.994;6.940;2022-11-15T14:19:51;2.90;;;2.55;;
66087;SDS011;52872;52.994;6.940;2022-11-15T14:22:10;3.30;;;2.65;;
66087;SDS011;52872;52.994;6.940;2022-11-15T14:25:05;3.80;;;2.80;;
66087;SDS011;52872;52.994;6.940;2022-11-15T14:27:33;3.60;;;3.30;;
66087;SDS011;52872;52.994;6.940;2022-11-15T14:30:00;2.90;;;2.70;;
66087;SDS011;52872;52.994;6.940;2022-11-15T14:32:28;3.70;;;3.00;;
66087;SDS011;52872;52.994;6.940;2022-11-15T14:35:09;3.75;;;2.80;;
66087;SDS011;52872;52.994;6.940;2022-11-15T14:37:40;4.40;;;3.00;;
66087;SDS011;52872;52.994;6.940;2022-11-15T14:40:08;3.03;;;2.67;;
66087;SDS011;52872;52.994;6.940;2022-11-15T14:42:38;4.20;;;3.05;;
66087;SDS011;52872;52.994;6.940;2022-11-15T14:45:10;4.80;;;3.00;;
66087;SDS011;52872;52.994;6.940;2022-11-15T14:47:42;3.97;;;3.35;;
66087;SDS011;52872;52.994;6.940;2022-11-15T14:50:11;4.88;;;3.67;;
66087;SDS011;52872;52.994;6.940;2022-11-15T14:52:43;4.50;;;3.40;;
66087;SDS011;52872;52.994;6.940;2022-11-15T14:57:40;4.45;;;3.08;;
66087;SDS011;52872;52.994;6.940;2022-11-15T15:00:07;3.70;;;3.33;;
66087;SDS011;52872;52.994;6.940;2022-11-15T15:02:39;4.75;;;3.13;;
66087;SDS011;52872;52.994;6.940;2022-11-15T15:07:48;4.30;;;3.65;;
66087;SDS011;52872;52.994;6.940;2022-11-15T15:10:16;4.22;;;3.10;;
66087;SDS011;52872;52.994;6.940;2022-11-15T15:13:03;5.40;;;4.30;;
66087;SDS011;52872;52.994;6.940;2022-11-15T15:15:32;5.25;;;4.75;;
66087;SDS011;52872;52.994;6.940;2022-11-15T15:18:01;5.28;;;4.75;;
66087;SDS011;52872;52.994;6.940;2022-11-15T15:20:28;4.93;;;4.50;;
66087;SDS011;52872;52.994;6.940;2022-11-15T15:22:56;5.15;;;4.68;;
66087;SDS011;52872;52.994;6.940;2022-11-15T15:25:24;5.32;;;4.82;;
66087;SDS011;52872;52.994;6.940;2022-11-15T15:28:01;7.13;;;4.60;;
66087;SDS011;52872;52.994;6.940;2022-11-15T15:30:29;5.45;;;4.95;;
66087;SDS011;52872;52.994;6.940;2022-11-15T15:32:56;6.25;;;5.40;;
66087;SDS011;52872;52.994;6.940;2022-11-15T15:35:23;5.90;;;4.70;;
66087;SDS011;52872;52.994;6.940;2022-11-15T15:37:55;5.20;;;4.70;;
66087;SDS011;52872;52.994;6.940;2022-11-15T15:40:23;5.93;;;5.43;;
66087;SDS011;52872;52.994;6.940;2022-11-15T15:42:51;6.22;;;5.32;;
66087;SDS011;52872;52.994;6.940;2022-11-15T15:45:18;6.15;;;5.53;;
66087;SDS011;52872;52.994;6.940;2022-11-15T15:47:45;6.03;;;5.38;;
66087;SDS011;52872;52.994;6.940;2022-11-15T15:52:51;5.60;;;5.00;;
66087;SDS011;52872;52.994;6.940;2022-11-15T15:55:19;6.00;;;5.50;;
66087;SDS011;52872;52.994;6.940;2022-11-15T15:57:46;6.75;;;6.05;;
66087;SDS011;52872;52.994;6.940;2022-11-15T16:00:14;9.98;;;5.80;;
66087;SDS011;52872;52.994;6.940;2022-11-15T16:02:41;5.03;;;4.63;;
66087;SDS011;52872;52.994;6.940;2022-11-15T16:05:08;5.50;;;5.00;;
66087;SDS011;52872;52.994;6.940;2022-11-15T16:07:36;7.88;;;5.55;;
66087;SDS011;52872;52.994;6.940;2022-11-15T16:12:54;4.20;;;3.90;;
66087;SDS011;52872;52.994;6.940;2022-11-15T16:15:22;7.65;;;4.15;;
66087;SDS011;52872;52.994;6.940;2022-11-15T16:17:55;4.35;;;3.83;;
66087;SDS011;52872;52.994;6.940;2022-11-15T16:20:37;4.25;;;3.65;;
66087;SDS011;52872;52.994;6.940;2022-11-15T16:23:09;5.45;;;3.22;;
66087;SDS011;52872;52.994;6.940;2022-11-15T16:25:48;24.38;;;15.45;;
66087;SDS011;52872;52.994;6.940;2022-11-15T16:30:58;41.65;;;34.63;;
66087;SDS011;52872;52.994;6.940;2022-11-15T16:33:26;4.90;;;4.40;;
66087;SDS011;52872;52.994;6.940;2022-11-15T16:35:53;4.47;;;4.07;;
66087;SDS011;52872;52.994;6.940;2022-11-15T16:38:20;4.43;;;3.65;;
66087;SDS011;52872;52.994;6.940;2022-11-15T16:40:47;6.00;;;5.53;;
66087;SDS011;52872;52.994;6.940;2022-11-15T16:43:14;6.22;;;5.15;;
66087;SDS011;52872;52.994;6.940;2022-11-15T16:45:41;18.77;;;15.73;;
66087;SDS011;52872;52.994;6.940;2022-11-15T16:48:20;6.43;;;5.47;;
66087;SDS011;52872;52.994;6.940;2022-11-15T16:50:47;5.88;;;3.20;;
66087;SDS011;52872;52.994;6.940;2022-11-15T16:53:14;5.70;;;5.13;;
66087;SDS011;52872;52.994;6.940;2022-11-15T16:55:41;4.47;;;4.07;;
66087;SDS011;52872;52.994;6.940;2022-11-15T16:58:08;5.75;;;3.47;;
66087;SDS011;52872;52.994;6.940;2022-11-15T17:00:35;3.80;;;3.50;;
66087;SDS011;52872;52.994;6.940;2022-11-15T17:03:02;8.18;;;3.90;;
66087;SDS011;52872;52.994;6.940;2022-11-15T17:05:30;5.07;;;2.70;;
66087;SDS011;52872;52.994;6.940;2022-11-15T17:07:57;5.72;;;4.18;;
66087;SDS011;52872;52.994;6.940;2022-11-15T17:10:24;3.53;;;2.60;;
66087;SDS011;52872;52.994;6.940;2022-11-15T17:12:53;5.65;;;2.88;;
66087;SDS011;52872;52.994;6.940;2022-11-15T17:15:21;3.10;;;2.50;;
66087;SDS011;52872;52.994;6.940;2022-11-15T17:17:50;2.60;;;2.40;;
66087;SDS011;52872;52.994;6.940;2022-11-15T17:20:19;3.53;;;2.97;;
66087;SDS011;52872;52.994;6.940;2022-11-15T17:22:47;4.53;;;3.28;;
66087;SDS011;52872;52.994;6.940;2022-11-15T17:25:14;6.03;;;5.45;;
66087;SDS011;52872;52.994;6.940;2022-11-15T17:27:41;3.00;;;2.63;;
66087;SDS011;52872;52.994;6.940;2022-11-15T17:30:09;4.45;;;4.15;;
66087;SDS011;52872;52.994;6.940;2022-11-15T17:32:38;3.72;;;3.42;;
66087;SDS011;52872;52.994;6.940;2022-11-15T17:35:05;2.90;;;2.40;;
66087;SDS011;52872;52.994;6.940;2022-11-15T17:37:39;3.25;;;2.78;;
66087;SDS011;52872;52.994;6.940;2022-11-15T17:40:06;3.08;;;2.40;;
66087;SDS011;52872;52.994;6.940;2022-11-15T17:42:33;2.58;;;2.30;;
66087;SDS011;52872;52.994;6.940;2022-11-15T17:45:00;2.92;;;2.40;;
66087;SDS011;52872;52.994;6.940;2022-11-15T17:47:31;2.85;;;2.40;;
66087;SDS011;52872;52.994;6.940;2022-11-15T17:49:58;3.30;;;2.60;;
66087;SDS011;52872;52.994;6.940;2022-11-15T17:52:25;2.65;;;2.45;;
66087;SDS011;52872;52.994;6.940;2022-11-15T17:54:52;2.80;;;2.35;;
66087;SDS011;52872;52.994;6.940;2022-11-15T17:57:19;2.90;;;2.33;;
66087;SDS011;52872;52.994;6.940;2022-11-15T17:59:46;3.22;;;2.92;;
66087;SDS011;52872;52.994;6.940;2022-11-15T18:02:14;4.07;;;2.97;;
66087;SDS011;52872;52.994;6.940;2022-11-15T18:04:41;2.78;;;2.55;;
66087;SDS011;52872;52.994;6.940;2022-11-15T18:07:07;2.70;;;2.42;;
66087;SDS011;52872;52.994;6.940;2022-11-15T18:09:36;52.90;;;26.58;;
66087;SDS011;52872;52.994;6.940;2022-11-15T18:12:07;4.38;;;3.83;;
66087;SDS011;52872;52.994;6.940;2022-11-15T18:14:35;3.40;;;3.20;;
66087;SDS011;52872;52.994;6.940;2022-11-15T18:17:02;7.97;;;6.50;;